createdAt,value
2023-03-19T01:00:54.189Z,31.13
2023-03-19T01:05:54.454Z,31.13
2023-03-19T01:06:54.540Z,31.14
2023-03-19T01:07:54.595Z,31.15
2023-03-19T01:08:54.671Z,31.14
2023-03-19T01:09:54.735Z,31.12
2023-03-19T01:10:54.802Z,31.10
2023-03-19T01:11:54.875Z,31.10
2023-03-19T01:12:54.933Z,31.14
2023-03-19T01:13:55.006Z,31.12
2023-03-19T01:14:55.082Z,31.11
2023-03-19T01:15:55.154Z,31.12
2023-03-19T01:16:55.227Z,31.11
2023-03-19T01:17:55.307Z,31.09
2023-03-19T01:18:55.390Z,31.10
2023-03-19T01:19:55.489Z,31.10
2023-03-19T01:20:55.534Z,31.08
2023-03-19T01:21:55.614Z,31.12
2023-03-19T01:22:55.692Z,31.16
2023-03-19T01:23:55.760Z,31.10
2023-03-19T01:24:55.831Z,31.10
2023-03-19T01:25:55.913Z,31.13
2023-03-19T01:26:55.978Z,31.11
2023-03-19T01:27:56.064Z,31.11
2023-03-19T01:28:56.132Z,31.09
2023-03-19T01:29:56.209Z,31.13
2023-03-19T01:30:56.319Z,31.12
2023-03-19T01:31:56.373Z,31.10
2023-03-19T01:32:56.522Z,31.15
2023-03-19T01:33:56.529Z,31.15
2023-03-19T01:34:56.606Z,31.11
2023-03-19T01:35:56.710Z,31.12
2023-03-19T01:36:56.780Z,31.15
2023-03-19T01:37:56.865Z,31.10
2023-03-19T01:38:56.950Z,31.11
2023-03-19T01:39:57.036Z,31.07
2023-03-19T01:40:57.115Z,31.09
2023-03-19T01:45:57.562Z,31.10
2023-03-19T01:46:57.602Z,31.11
2023-03-19T01:47:57.690Z,31.09
2023-03-19T01:48:57.773Z,31.09
2023-03-19T01:49:57.857Z,31.12
2023-03-19T01:50:57.948Z,31.10
2023-03-19T01:51:58.027Z,31.08
2023-03-19T01:52:58.110Z,31.12
2023-03-19T01:53:58.197Z,31.08
2023-03-19T01:54:58.273Z,31.08
2023-03-19T01:55:58.363Z,31.08
2023-03-19T01:56:58.442Z,31.09
2023-03-19T01:57:58.516Z,31.11
2023-03-19T01:58:58.603Z,31.12
2023-03-19T01:59:58.683Z,31.07
2023-03-19T02:00:58.779Z,31.09
2023-03-19T02:01:58.905Z,31.14
2023-03-19T02:02:58.928Z,31.11
2023-03-19T02:03:59.028Z,31.17
2023-03-19T02:04:59.101Z,31.16
2023-03-19T02:05:59.175Z,31.20
2023-03-19T02:06:59.256Z,31.10
2023-03-19T02:07:59.337Z,31.10
2023-03-19T02:08:59.433Z,31.14
2023-03-19T02:09:59.501Z,31.12
2023-03-19T02:10:59.582Z,31.11
2023-03-19T02:11:59.655Z,31.10
2023-03-19T02:12:59.746Z,31.19
2023-03-19T02:13:59.811Z,31.10
2023-03-19T02:14:59.885Z,31.15
2023-03-19T02:15:59.989Z,31.16
2023-03-19T02:17:00.104Z,31.15
2023-03-19T02:18:00.119Z,31.15
2023-03-19T02:19:00.196Z,31.12
2023-03-19T02:20:00.275Z,31.09
2023-03-19T02:21:00.352Z,31.08
2023-03-19T02:22:00.446Z,31.12
2023-03-19T02:23:00.521Z,31.16
2023-03-19T02:24:00.607Z,31.16
2023-03-19T02:25:00.703Z,31.14
2023-03-19T02:26:00.776Z,31.11
2023-03-19T02:27:00.855Z,31.13
2023-03-19T02:28:00.938Z,31.17
2023-03-19T02:29:01.020Z,31.10
2023-03-19T02:30:02.978Z,31.06
2023-03-19T02:31:01.175Z,31.09
2023-03-19T02:32:01.251Z,31.12
2023-03-19T02:33:01.346Z,31.09
2023-03-19T02:34:01.438Z,31.07
2023-03-19T02:35:01.500Z,31.09
2023-03-19T02:36:01.593Z,31.09
2023-03-19T02:37:01.650Z,31.08
2023-03-19T02:38:01.736Z,31.06
2023-03-19T02:39:01.814Z,31.06
2023-03-19T02:40:01.913Z,31.04
2023-03-19T02:41:01.984Z,31.05
2023-03-19T02:42:02.048Z,31.08
2023-03-19T02:43:02.126Z,31.06
2023-03-19T02:44:02.216Z,31.08
2023-03-19T02:45:02.307Z,31.05
2023-03-19T02:56:03.213Z,31.06
2023-03-19T02:57:03.316Z,31.02
2023-03-19T02:58:03.401Z,31.03
2023-03-19T02:59:03.454Z,31.00
2023-03-19T03:00:03.541Z,31.01
2023-03-19T03:01:03.716Z,31.02
2023-03-19T03:02:03.726Z,31.02
2023-03-19T03:03:03.788Z,31.01
2023-03-19T03:04:03.879Z,31.08
2023-03-19T03:05:03.964Z,31.03
2023-03-19T03:06:04.054Z,31.03
2023-03-19T03:07:04.127Z,31.01
2023-03-19T03:08:04.228Z,31.03
2023-03-19T03:09:04.303Z,31.02
2023-03-19T03:10:04.377Z,31.00
2023-03-19T03:11:04.472Z,30.99
2023-03-19T03:12:04.547Z,31.02
2023-03-19T03:13:04.642Z,31.00
2023-03-19T03:14:04.727Z,30.99
2023-03-19T03:15:04.802Z,31.02
2023-03-19T03:16:04.933Z,31.00
2023-03-19T03:17:04.970Z,30.99
2023-03-19T03:18:05.048Z,31.00
2023-03-19T03:19:05.134Z,31.01
2023-03-19T03:20:05.203Z,31.06
2023-03-19T03:21:05.287Z,31.02
2023-03-19T03:22:05.373Z,31.04
2023-03-19T03:23:05.475Z,31.06
2023-03-19T03:24:05.599Z,31.07
2023-03-19T03:25:05.623Z,30.99
2023-03-19T03:26:05.709Z,30.95
2023-03-19T03:27:05.807Z,30.98
2023-03-19T03:28:05.884Z,30.99
2023-03-19T03:29:05.964Z,30.99
2023-03-19T03:30:06.042Z,30.97
2023-03-19T03:31:06.127Z,30.97
2023-03-19T03:32:06.220Z,30.94
2023-03-19T03:33:06.357Z,30.96
2023-03-19T03:34:06.386Z,30.97
2023-03-19T03:35:06.469Z,31.00
2023-03-19T03:36:06.556Z,31.03
2023-03-19T03:37:06.643Z,30.98
2023-03-19T03:38:06.753Z,31.03
2023-03-19T03:39:06.803Z,31.07
2023-03-19T03:40:06.898Z,30.98
2023-03-19T03:41:06.977Z,30.95
2023-03-19T03:42:07.064Z,30.95
2023-03-19T03:43:07.139Z,30.99
2023-03-19T03:44:07.222Z,30.97
2023-03-19T03:45:07.327Z,30.95
2023-03-19T03:46:07.425Z,30.96
2023-03-19T03:47:07.492Z,30.95
2023-03-19T03:48:07.579Z,31.00
2023-03-19T03:49:07.664Z,31.00
2023-03-19T03:50:07.760Z,30.97
2023-03-19T03:51:07.838Z,30.99
2023-03-19T03:52:07.901Z,31.02
2023-03-19T03:53:07.986Z,31.00
2023-03-19T03:54:08.060Z,30.97
2023-03-19T03:55:08.146Z,30.95
2023-03-19T03:56:08.240Z,31.00
2023-03-19T03:57:08.325Z,31.02
2023-03-19T03:58:08.403Z,31.10
2023-03-19T03:59:08.483Z,31.00
2023-03-19T04:00:08.566Z,31.01
2023-03-19T04:01:08.639Z,31.02
2023-03-19T04:02:08.774Z,30.99
2023-03-19T04:50:13.657Z,30.93
2023-03-19T04:53:13.236Z,30.91
2023-03-19T04:54:13.336Z,30.96
2023-03-19T04:55:13.440Z,30.97
2023-03-19T04:56:13.518Z,30.94
2023-03-19T04:57:13.611Z,31.01
2023-03-19T04:58:13.695Z,30.98
2023-03-19T04:59:13.801Z,30.95
2023-03-19T05:00:13.891Z,30.97
2023-03-19T05:01:14.027Z,30.93
2023-03-19T05:02:14.148Z,30.95
2023-03-19T05:03:14.152Z,30.98
2023-03-19T05:04:14.271Z,30.95
2023-03-19T05:05:14.342Z,31.00
2023-03-19T05:06:14.428Z,30.99
2023-03-19T05:07:14.526Z,30.97
2023-03-19T05:08:14.626Z,30.97
2023-03-19T05:09:14.703Z,30.97
2023-03-19T05:10:14.781Z,30.99
2023-03-19T05:11:14.869Z,30.98
2023-03-19T05:12:14.975Z,30.97
2023-03-19T05:13:15.060Z,30.93
2023-03-19T05:14:15.155Z,30.94
2023-03-19T05:15:15.254Z,30.99
2023-03-19T05:16:15.384Z,30.95
2023-03-19T05:17:15.451Z,30.92
2023-03-19T05:18:15.549Z,30.93
2023-03-19T05:19:15.619Z,30.95
2023-03-19T05:20:15.746Z,30.93
2023-03-19T05:21:15.815Z,30.93
2023-03-19T05:22:15.975Z,30.94
2023-03-19T05:23:16.017Z,30.93
2023-03-19T05:24:16.087Z,30.98
2023-03-19T05:25:16.185Z,31.03
2023-03-19T05:26:16.298Z,30.98
2023-03-19T05:27:16.381Z,30.97
2023-03-19T05:28:16.496Z,30.97
2023-03-19T05:29:16.590Z,31.01
2023-03-19T05:30:16.737Z,30.95
2023-03-19T05:31:16.882Z,31.00
2023-03-19T05:32:16.877Z,31.03
2023-03-19T05:33:17.081Z,31.02
2023-03-19T05:34:17.068Z,31.01
2023-03-19T05:35:17.166Z,30.99
2023-03-19T05:36:17.262Z,31.05
2023-03-19T05:37:17.349Z,31.04
2023-03-19T05:38:17.613Z,31.03
2023-03-19T05:39:17.536Z,31.12
2023-03-19T05:40:17.626Z,31.15
2023-03-19T05:41:17.722Z,31.00
2023-03-19T05:42:17.815Z,31.02
2023-03-19T05:43:17.903Z,30.96
2023-03-19T05:44:17.990Z,31.02
2023-03-19T05:45:18.074Z,31.01
2023-03-19T05:46:18.193Z,30.95
2023-03-19T05:47:18.251Z,31.01
2023-03-19T05:48:18.337Z,31.00
2023-03-19T05:49:18.427Z,31.00
2023-03-19T05:50:18.562Z,31.00
2023-03-19T05:51:18.608Z,31.01
2023-03-19T05:52:18.700Z,31.04
2023-03-19T05:53:18.783Z,31.01
2023-03-19T05:54:18.862Z,30.98
2023-03-19T05:55:18.959Z,30.97
2023-03-19T05:56:19.046Z,31.02
2023-03-19T05:57:19.137Z,31.02
2023-03-19T05:58:19.225Z,30.96
2023-03-19T05:59:19.306Z,30.92
2023-03-19T06:00:19.382Z,30.91
2023-03-19T06:01:19.511Z,30.89
2023-03-19T06:02:19.697Z,30.89
2023-03-19T06:03:19.660Z,30.96
2023-03-19T06:04:19.811Z,30.96
2023-03-19T06:05:19.824Z,30.86
2023-03-19T06:06:19.897Z,30.89
2023-03-19T06:07:19.989Z,30.91
2023-03-19T06:08:20.057Z,30.87
2023-03-19T06:09:20.147Z,30.86
2023-03-19T06:10:20.223Z,30.87
2023-03-19T06:11:20.362Z,30.84
2023-03-19T06:12:20.384Z,30.86
2023-03-19T06:13:20.473Z,30.94
2023-03-19T06:14:20.550Z,30.90
2023-03-19T06:15:20.646Z,30.88
2023-03-19T06:16:20.770Z,30.85
2023-03-19T06:17:20.810Z,30.80
2023-03-19T06:18:20.896Z,30.78
2023-03-19T06:19:20.979Z,30.78
2023-03-19T06:20:21.065Z,30.83
2023-03-19T06:21:21.163Z,30.77
2023-03-19T06:22:21.248Z,30.79
2023-03-19T06:23:21.327Z,30.78
2023-03-19T06:24:21.429Z,30.76
2023-03-19T06:25:21.509Z,30.74
2023-03-19T06:26:21.610Z,30.75
2023-03-19T06:27:21.701Z,30.72
2023-03-19T06:28:21.890Z,30.67
2023-03-19T06:29:21.874Z,30.67
2023-03-19T06:30:21.958Z,30.69
2023-03-19T06:31:22.068Z,30.67
2023-03-19T06:32:22.132Z,30.70
2023-03-19T06:33:22.218Z,30.68
2023-03-19T06:34:22.299Z,30.66
2023-03-19T06:35:22.508Z,30.68
2023-03-19T06:36:22.477Z,30.68
2023-03-19T06:37:22.558Z,30.66
2023-03-19T06:38:22.657Z,30.65
2023-03-19T06:39:22.738Z,30.65
2023-03-19T06:40:22.821Z,30.62
2023-03-19T06:41:22.899Z,30.64
2023-03-19T06:42:23.162Z,30.66
2023-03-19T06:43:23.079Z,30.64
2023-03-19T06:44:23.155Z,30.64
2023-03-19T06:45:23.239Z,30.65
2023-03-19T06:46:23.405Z,30.65
2023-03-19T06:47:23.420Z,30.62
2023-03-19T06:48:23.488Z,30.61
2023-03-19T06:49:23.601Z,30.63
2023-03-19T06:50:23.633Z,30.62
2023-03-19T06:51:23.705Z,30.59
2023-03-19T06:52:23.808Z,30.59
2023-03-19T06:53:23.852Z,30.58
2023-03-19T06:54:23.939Z,30.62
2023-03-19T06:56:24.079Z,30.56
2023-03-19T06:57:24.153Z,30.56
2023-03-19T06:58:24.240Z,30.56
2023-03-19T06:59:24.328Z,30.57
2023-03-19T07:00:24.395Z,30.57
2023-03-19T07:01:24.523Z,30.54
2023-03-19T07:02:24.559Z,30.57
2023-03-19T07:03:24.625Z,30.56
2023-03-19T07:04:24.714Z,30.54
2023-03-19T07:05:24.783Z,30.52
2023-03-19T07:07:24.937Z,30.49
2023-03-19T07:08:24.984Z,30.49
2023-03-19T07:09:25.068Z,30.45
2023-03-19T07:11:25.198Z,30.45
2023-03-19T07:12:25.268Z,30.46
2023-03-19T07:13:25.337Z,30.45
2023-03-19T07:14:25.421Z,30.45
2023-03-19T07:15:25.490Z,30.43
2023-03-19T07:16:25.600Z,30.41
2023-03-19T07:17:25.638Z,30.39
2023-03-19T07:18:25.725Z,30.38
2023-03-19T07:19:25.793Z,30.34
2023-03-19T07:20:25.856Z,30.37
2023-03-19T07:21:25.912Z,30.37
2023-03-19T07:22:25.991Z,30.34
2023-03-19T07:23:26.049Z,30.34
2023-03-19T07:24:26.122Z,30.34
2023-03-19T07:25:26.187Z,30.33
2023-03-19T07:26:26.250Z,30.39
2023-03-19T07:27:26.324Z,30.46
2023-03-19T07:28:26.390Z,30.49
2023-03-19T07:29:26.458Z,30.40
2023-03-19T07:30:26.529Z,30.35
2023-03-19T07:31:26.630Z,30.35
2023-03-19T07:32:26.666Z,30.45
2023-03-19T07:33:26.739Z,30.44
2023-03-19T08:01:28.443Z,30.09
2023-03-19T08:02:28.514Z,30.12
2023-03-19T08:03:28.529Z,30.13
2023-03-19T08:04:28.611Z,30.08
2023-03-19T08:05:28.612Z,30.00
2023-03-19T08:06:28.664Z,29.98
2023-03-19T08:07:28.707Z,29.99
2023-03-19T09:30:33.183Z,28.63
2023-03-19T09:31:33.257Z,28.53
2023-03-19T09:32:33.338Z,28.61
2023-03-19T09:33:33.335Z,28.61
2023-03-19T09:34:33.406Z,28.66
2023-03-19T09:35:33.691Z,28.60
2023-03-19T09:36:33.494Z,28.56
2023-03-19T09:37:33.537Z,28.57
2023-03-19T09:38:33.592Z,28.58
2023-03-19T09:39:33.633Z,28.55
2023-03-19T09:40:33.694Z,28.54
2023-03-19T09:41:33.764Z,28.56
2023-03-19T09:42:33.773Z,28.60
2023-03-19T09:43:33.821Z,28.61
2023-03-19T09:44:33.868Z,28.66
2023-03-19T09:45:34.229Z,28.58
2023-03-19T09:46:34.011Z,28.67
2023-03-19T09:47:34.050Z,28.64
2023-03-19T09:48:34.116Z,28.61
2023-03-19T09:49:34.179Z,28.64
2023-03-19T09:50:34.238Z,28.74
2023-03-19T09:51:34.293Z,28.81
2023-03-19T09:52:34.368Z,28.65
2023-03-19T09:53:34.420Z,28.69
2023-03-19T09:54:34.492Z,28.67
2023-03-19T09:55:34.807Z,28.64
2023-03-19T09:56:34.619Z,28.63
2023-03-19T09:57:34.677Z,28.68
2023-03-19T09:58:34.738Z,28.71
2023-03-19T09:59:34.811Z,28.57
2023-03-19T10:00:34.883Z,28.70
2023-03-19T10:01:34.975Z,28.76
2023-03-19T10:02:35.028Z,28.80
2023-03-19T10:03:35.134Z,28.74
2023-03-19T10:04:35.133Z,28.68
2023-03-19T10:05:35.477Z,28.81
2023-03-19T10:06:35.261Z,28.67
2023-03-19T10:07:35.325Z,28.67
2023-03-19T10:08:35.408Z,28.66
2023-03-19T10:09:35.448Z,28.68
2023-03-19T10:10:35.498Z,28.65
2023-03-19T10:11:35.547Z,28.60
2023-03-19T10:12:35.607Z,28.59
2023-03-19T10:13:35.639Z,28.57
2023-03-19T10:14:35.694Z,28.42
2023-03-19T10:15:36.274Z,28.49
2023-03-19T10:16:35.849Z,28.42
2023-03-19T10:17:35.828Z,28.38
2023-03-19T10:18:35.869Z,28.36
2023-03-19T10:19:38.421Z,28.35
2023-03-19T10:20:35.914Z,28.37
2023-03-19T10:21:35.908Z,28.26
2023-03-19T10:22:35.964Z,28.26
2023-03-19T10:23:35.927Z,28.20
2023-03-19T10:24:35.930Z,28.21
2023-03-19T10:25:36.641Z,28.14
2023-03-19T10:26:36.019Z,28.17
2023-03-19T10:27:35.945Z,28.09
2023-03-19T10:28:35.952Z,28.08
2023-03-19T10:29:35.953Z,28.10
2023-03-19T10:30:35.959Z,28.04
2023-03-19T10:31:36.003Z,28.07
2023-03-19T10:32:36.049Z,28.10
2023-03-19T10:33:35.991Z,28.08
2023-03-19T10:34:36.001Z,28.25
2023-03-19T10:35:36.468Z,28.25
2023-03-19T10:36:36.001Z,28.21
2023-03-19T10:37:35.992Z,28.32
2023-03-19T10:38:36.001Z,28.35
2023-03-19T10:39:36.014Z,28.44
2023-03-19T10:40:36.009Z,28.50
2023-03-19T10:41:36.039Z,28.46
2023-03-19T10:42:36.022Z,28.45
2023-03-19T10:43:36.016Z,28.45
2023-03-19T10:44:36.030Z,28.49
2023-03-19T10:45:38.452Z,28.52
2023-03-19T10:46:36.029Z,28.58
2023-03-19T10:47:36.035Z,28.56
2023-03-19T10:48:36.036Z,28.45
2023-03-19T10:49:36.041Z,28.48
2023-03-19T10:50:36.045Z,28.47
2023-03-19T10:51:36.053Z,28.44
2023-03-19T10:52:36.066Z,28.49
2023-03-19T10:53:36.085Z,28.50
2023-03-19T10:54:36.069Z,28.51
2023-03-19T10:55:36.336Z,28.52
2023-03-19T10:56:36.112Z,28.50
2023-03-19T10:57:36.120Z,28.49
2023-03-19T10:58:36.127Z,28.39
2023-03-19T10:59:36.129Z,28.51
2023-03-19T11:00:36.144Z,28.47
2023-03-19T11:01:36.166Z,28.46
2023-03-19T11:02:36.172Z,28.54
2023-03-19T11:03:36.234Z,28.61
2023-03-19T11:04:36.170Z,28.56
2023-03-19T11:05:36.386Z,28.57
2023-03-19T11:06:36.266Z,28.56
2023-03-19T11:07:36.201Z,28.55
2023-03-19T11:08:36.282Z,28.58
2023-03-19T11:09:36.210Z,28.59
2023-03-19T11:10:36.219Z,28.61
2023-03-19T11:11:36.222Z,28.57
2023-03-19T11:12:36.251Z,28.56
2023-03-19T11:13:36.241Z,28.72
2023-03-19T11:14:36.258Z,28.66
2023-03-19T11:15:36.656Z,28.65
2023-03-19T11:16:36.294Z,28.62
2023-03-19T11:17:36.342Z,28.57
2023-03-19T11:18:36.271Z,28.56
2023-03-19T11:19:36.274Z,28.56
2023-03-19T11:20:36.300Z,28.57
2023-03-19T11:21:36.289Z,28.59
2023-03-19T11:22:36.300Z,28.60
2023-03-19T11:23:36.300Z,28.62
2023-03-19T11:24:36.314Z,28.56
2023-03-19T11:25:36.618Z,28.61
2023-03-19T11:26:36.326Z,28.59
2023-03-19T11:27:36.328Z,28.58
2023-03-19T11:28:36.330Z,28.60
2023-03-19T11:29:36.342Z,28.61
2023-03-19T11:30:36.336Z,28.65
2023-03-19T11:31:36.334Z,28.68
2023-03-19T11:32:36.519Z,28.65
2023-03-19T11:33:36.348Z,28.70
2023-03-19T11:34:37.314Z,28.67
2023-03-19T11:35:36.768Z,28.65
2023-03-19T11:36:36.360Z,28.62
2023-03-19T11:37:36.371Z,28.69
2023-03-19T11:38:36.384Z,28.69
2023-03-19T11:39:36.386Z,28.66
2023-03-19T11:40:36.396Z,28.69
2023-03-19T11:41:36.410Z,28.70
2023-03-19T11:42:36.412Z,28.63
2023-03-19T11:43:36.463Z,28.68
2023-03-19T11:44:36.439Z,28.68
2023-03-19T11:45:38.570Z,28.73
2023-03-19T11:46:36.445Z,28.68
2023-03-19T11:47:36.443Z,28.69
2023-03-19T11:48:36.464Z,28.70
2023-03-19T11:49:36.473Z,28.73
2023-03-19T11:50:36.476Z,28.72
2023-03-19T11:51:36.488Z,28.75
2023-03-19T11:52:36.495Z,28.77
2023-03-19T11:53:36.524Z,28.74
2023-03-19T11:54:36.524Z,28.76
2023-03-19T11:55:36.916Z,28.80
2023-03-19T11:56:36.532Z,28.83
2023-03-19T11:57:36.550Z,28.82
2023-03-19T11:58:36.549Z,28.82
2023-03-19T11:59:36.562Z,28.81
2023-03-19T12:00:36.572Z,28.89
2023-03-19T12:01:39.136Z,28.88
2023-03-19T12:02:36.868Z,28.88
2023-03-19T12:03:37.007Z,28.90
2023-03-19T12:04:36.959Z,28.95
2023-03-19T12:05:37.111Z,28.93
2023-03-19T12:06:37.080Z,28.97
2023-03-19T12:07:37.144Z,28.96
2023-03-19T12:08:37.210Z,28.98
2023-03-19T12:09:37.276Z,28.98
2023-03-19T12:10:37.331Z,28.98
2023-03-19T12:11:37.392Z,29.01
2023-03-19T12:12:37.455Z,29.00
2023-03-19T12:13:37.519Z,29.01
2023-03-19T12:14:37.588Z,29.05
2023-03-19T12:15:37.692Z,29.05
2023-03-19T12:16:45.738Z,29.03
2023-03-19T12:17:38.731Z,29.05
2023-03-19T12:18:37.740Z,29.08
2023-03-19T12:19:37.761Z,29.12
2023-03-19T12:20:37.758Z,29.09
2023-03-19T12:21:37.780Z,29.11
2023-03-19T12:22:37.822Z,29.11
2023-03-19T12:23:37.801Z,29.17
2023-03-19T12:24:37.829Z,29.13
2023-03-19T12:25:37.843Z,29.16
2023-03-19T12:26:37.840Z,29.17
2023-03-19T12:27:37.863Z,29.24
2023-03-19T12:28:37.879Z,29.17
2023-03-19T12:29:37.949Z,29.22
2023-03-19T12:30:38.030Z,29.24
2023-03-19T12:31:38.117Z,29.22
2023-03-19T12:32:38.252Z,29.25
2023-03-19T12:33:38.252Z,29.24
2023-03-19T12:34:38.320Z,29.25
2023-03-19T12:35:38.766Z,29.31
2023-03-19T12:36:38.457Z,29.32
2023-03-19T12:37:38.537Z,29.28
2023-03-19T12:38:38.602Z,29.30
2023-03-19T12:39:38.677Z,29.30
2023-03-19T12:40:38.778Z,29.30
2023-03-19T12:41:38.822Z,29.31
2023-03-19T12:42:38.891Z,29.28
2023-03-19T12:43:38.965Z,29.29
2023-03-19T12:44:39.046Z,29.30
2023-03-19T12:45:39.114Z,29.31
2023-03-19T12:46:39.307Z,29.34
2023-03-19T12:47:39.261Z,29.33
2023-03-19T12:48:39.336Z,29.33
2023-03-19T12:49:39.406Z,29.30
2023-03-19T12:50:39.664Z,29.39
2023-03-19T12:51:39.549Z,29.44
2023-03-19T12:52:39.608Z,29.37
2023-03-19T12:53:39.678Z,29.39
2023-03-19T12:54:39.755Z,29.45
2023-03-19T12:55:39.883Z,29.44
2023-03-19T12:56:39.916Z,29.43
2023-03-19T12:57:39.996Z,29.54
2023-03-19T12:58:40.055Z,29.51
2023-03-19T12:59:40.124Z,29.47
2023-03-19T13:00:40.213Z,29.50
2023-03-19T13:01:40.422Z,29.45
2023-03-19T13:02:40.433Z,29.62
2023-03-19T13:03:40.425Z,29.49
2023-03-19T13:04:40.585Z,29.52
2023-03-19T13:05:40.583Z,29.49
2023-03-19T13:06:40.669Z,29.47
2023-03-19T13:07:40.746Z,29.50
2023-03-19T13:08:40.870Z,29.48
2023-03-19T13:09:40.907Z,29.48
2023-03-19T13:10:40.992Z,29.44
2023-03-19T13:11:41.068Z,29.52
2023-03-19T13:12:41.155Z,29.75
2023-03-19T13:13:41.228Z,29.52
2023-03-19T13:14:41.313Z,29.49
2023-03-19T13:15:41.400Z,29.51
2023-03-19T13:16:41.491Z,29.55
2023-03-19T13:17:41.591Z,29.58
2023-03-19T13:18:41.659Z,29.56
2023-03-19T13:19:41.727Z,29.56
2023-03-19T13:20:41.802Z,29.55
2023-03-19T13:21:41.878Z,29.53
2023-03-19T13:22:41.951Z,29.58
2023-03-19T13:23:42.034Z,29.57
2023-03-19T13:24:42.106Z,29.59
2023-03-19T13:25:42.204Z,29.61
2023-03-19T13:26:42.261Z,29.58
2023-03-19T13:27:42.309Z,29.57
2023-03-19T13:28:43.541Z,29.59
2023-03-19T13:29:42.447Z,29.58
2023-03-19T13:30:42.559Z,29.57
2023-03-19T13:31:42.623Z,29.59
2023-03-19T13:32:42.698Z,29.60
2023-03-19T13:33:42.730Z,29.58
2023-03-19T13:34:42.814Z,29.59
2023-03-19T13:35:42.903Z,29.57
2023-03-19T13:36:42.987Z,29.63
2023-03-19T13:37:43.049Z,29.65
2023-03-19T13:38:43.113Z,29.63
2023-03-19T13:39:43.181Z,29.64
2023-03-19T13:40:43.256Z,29.61
2023-03-19T13:41:43.327Z,29.61
2023-03-19T13:42:43.381Z,29.65
2023-03-19T13:43:43.447Z,29.64
2023-03-19T13:44:43.503Z,29.62
2023-03-19T13:45:43.593Z,29.67
2023-03-19T13:46:43.689Z,29.65
2023-03-19T13:47:43.775Z,29.67
2023-03-19T13:48:43.863Z,29.68
2023-03-19T13:49:43.945Z,29.67
2023-03-19T13:50:44.033Z,29.68
2023-03-19T13:51:44.151Z,29.71
2023-03-19T13:52:44.190Z,29.69
2023-03-19T13:53:44.265Z,29.73
2023-03-19T13:54:44.355Z,29.72
2023-03-19T13:55:44.402Z,29.71
2023-03-19T13:56:44.457Z,29.72
2023-03-19T13:57:44.517Z,29.72
2023-03-19T13:58:44.596Z,29.74
2023-03-19T13:59:44.677Z,29.77
2023-03-19T14:00:44.757Z,29.74
2023-03-19T14:01:45.045Z,29.75
2023-03-19T14:02:44.915Z,29.76
2023-03-19T14:03:45.032Z,29.73
2023-03-19T14:04:45.039Z,29.73
2023-03-19T14:05:45.121Z,29.76
2023-03-19T14:06:45.186Z,29.76
2023-03-19T14:07:45.262Z,29.82
2023-03-19T14:08:45.357Z,29.85
2023-03-19T14:09:45.457Z,29.82
2023-03-19T14:10:45.490Z,29.83
2023-03-19T14:11:45.537Z,29.84
2023-03-19T14:12:45.540Z,29.84
2023-03-19T14:13:45.553Z,29.84
2023-03-19T14:14:45.574Z,29.88
2023-03-19T14:15:45.611Z,29.99
2023-03-19T14:16:45.758Z,29.96
2023-03-19T14:17:45.798Z,29.91
2023-03-19T14:18:45.885Z,29.91
2023-03-19T14:19:46.284Z,29.95
2023-03-19T14:20:48.223Z,30.03
2023-03-19T14:21:47.496Z,29.96
2023-03-19T14:22:46.227Z,30.02
2023-03-19T14:23:46.867Z,30.02
2023-03-19T14:24:56.460Z,30.11
2023-03-19T14:25:47.360Z,30.05
2023-03-19T14:26:46.366Z,30.07
2023-03-19T14:27:46.380Z,30.16
2023-03-19T14:28:46.397Z,30.17
2023-03-19T14:29:46.413Z,30.16
2023-03-19T14:30:46.425Z,30.26
2023-03-19T14:31:46.533Z,30.16
2023-03-19T14:32:46.477Z,30.04
2023-03-19T14:33:46.475Z,30.07
2023-03-19T14:34:46.493Z,30.04
2023-03-19T14:35:46.643Z,30.14
2023-03-19T14:36:46.670Z,30.20
2023-03-19T14:37:46.789Z,30.17
2023-03-19T14:38:46.882Z,30.18
2023-03-19T14:39:46.956Z,30.18
2023-03-19T14:40:46.989Z,30.09
2023-03-19T14:41:46.994Z,30.13
2023-03-19T14:42:47.034Z,30.11
2023-03-19T14:43:47.062Z,30.12
2023-03-19T14:44:47.100Z,30.31
2023-03-19T14:45:47.125Z,30.33
2023-03-19T14:46:47.145Z,30.21
2023-03-19T14:47:47.167Z,30.19
2023-03-19T14:48:47.218Z,30.36
2023-03-19T14:49:47.241Z,30.22
2023-03-19T14:50:47.282Z,30.26
2023-03-19T14:51:47.376Z,30.20
2023-03-19T14:52:47.491Z,30.15
2023-03-19T14:53:47.506Z,30.19
2023-03-19T14:54:47.535Z,30.14
2023-03-19T14:55:47.541Z,30.13
2023-03-19T14:56:47.572Z,30.22
2023-03-19T14:57:47.595Z,30.16
2023-03-19T14:58:47.663Z,30.21
2023-03-19T14:59:47.691Z,30.15
2023-03-19T15:00:47.829Z,30.41
2023-03-19T15:01:47.762Z,30.25
2023-03-19T15:02:47.781Z,30.25
2023-03-19T15:03:47.791Z,30.27
2023-03-19T15:04:47.878Z,30.32
2023-03-19T15:05:47.983Z,30.37
2023-03-19T15:06:47.996Z,30.26
2023-03-19T15:07:48.027Z,30.37
2023-03-19T15:08:48.034Z,30.26
2023-03-19T15:09:48.047Z,30.28
2023-03-19T15:10:48.076Z,30.20
2023-03-19T15:11:48.172Z,30.20
2023-03-19T15:12:48.184Z,30.21
2023-03-19T15:13:48.230Z,30.18
2023-03-19T15:14:48.229Z,30.20
2023-03-19T15:15:48.254Z,30.33
2023-03-19T15:16:48.318Z,30.40
2023-03-19T15:18:02.776Z,30.36
2023-03-19T15:18:49.367Z,30.22
2023-03-19T15:19:48.374Z,30.23
2023-03-19T15:20:48.396Z,30.32
2023-03-19T15:21:48.390Z,30.33
2023-03-19T15:22:48.478Z,30.31
2023-03-19T15:23:48.408Z,30.19
2023-03-19T15:24:48.424Z,30.17
2023-03-19T15:25:48.457Z,30.19
2023-03-19T15:26:48.452Z,30.24
2023-03-19T15:27:48.450Z,30.29
2023-03-19T15:28:49.506Z,30.39
2023-03-19T15:29:50.423Z,30.41
2023-03-19T15:30:58.559Z,30.39
2023-03-19T15:33:02.988Z,30.43
2023-03-19T15:34:48.600Z,30.48
2023-03-19T15:35:48.567Z,30.41
2023-03-19T15:36:48.556Z,30.44
2023-03-19T15:37:48.562Z,30.43
2023-03-19T15:38:48.573Z,30.56
2023-03-19T17:38:55.325Z,30.61
2023-03-19T17:39:53.212Z,30.58
2023-03-19T17:40:53.253Z,30.59
2023-03-19T17:41:53.293Z,30.62
2023-03-19T17:42:53.336Z,30.61
2023-03-19T17:43:53.396Z,30.63
2023-03-19T17:44:53.405Z,30.65
2023-03-19T17:45:53.453Z,30.64
2023-03-19T17:46:53.634Z,30.65
2023-03-19T17:47:53.593Z,30.63
2023-03-19T17:48:53.629Z,30.62
2023-03-19T17:49:53.676Z,30.60
2023-03-19T17:50:53.738Z,30.63
2023-03-19T17:51:53.775Z,30.62
2023-03-19T17:52:53.826Z,30.62
2023-03-19T17:53:53.841Z,30.63
2023-03-19T17:54:53.934Z,30.63
2023-03-19T17:55:53.920Z,30.64
2023-03-19T17:56:54.064Z,30.61
2023-03-19T17:57:54.093Z,30.64
2023-03-19T17:58:54.150Z,30.65
2023-03-19T17:59:55.081Z,30.63
2023-03-19T18:00:54.240Z,30.67
2023-03-19T18:01:54.272Z,30.64
2023-03-19T18:02:54.310Z,30.65
2023-03-19T18:03:54.398Z,30.67
2023-03-19T18:04:54.387Z,30.68
2023-03-19T18:05:54.432Z,30.67
2023-03-19T18:06:54.475Z,30.62
2023-03-19T18:07:54.521Z,30.68
2023-03-19T18:08:54.555Z,30.64
2023-03-19T18:09:54.598Z,30.66
2023-03-19T18:10:54.646Z,30.66
2023-03-19T18:11:54.693Z,30.65
2023-03-19T18:12:54.853Z,30.66
2023-03-19T18:13:54.762Z,30.66
2023-03-19T18:14:54.812Z,30.67
2023-03-19T18:15:54.848Z,30.65
2023-03-19T18:16:54.904Z,30.66
2023-03-19T18:17:54.936Z,30.66
2023-03-19T18:18:54.971Z,30.65
2023-03-19T18:19:55.041Z,30.67
2023-03-19T18:20:55.069Z,30.67
2023-03-19T18:21:55.138Z,30.68
2023-03-19T18:22:55.149Z,30.68
2023-03-19T18:23:55.191Z,30.68
2023-03-19T18:24:55.242Z,30.68
2023-03-19T18:25:55.276Z,30.68
2023-03-19T18:26:55.325Z,30.68
2023-03-19T18:27:55.394Z,30.68
2023-03-19T18:28:55.406Z,30.68
2023-03-19T18:29:55.476Z,30.68
2023-03-19T18:30:55.570Z,30.68
2023-03-19T18:31:55.604Z,30.68
2023-03-19T18:32:55.589Z,30.67
2023-03-19T18:33:55.601Z,30.68
2023-03-19T18:34:55.719Z,30.70
2023-03-19T18:35:55.804Z,30.70
2023-03-19T18:36:55.792Z,30.68
2023-03-19T18:37:55.844Z,30.69
2023-03-19T18:38:55.889Z,30.74
2023-03-19T18:39:55.941Z,30.77
2023-03-19T18:40:55.986Z,30.72
2023-03-19T18:41:56.028Z,30.74
2023-03-19T18:42:56.092Z,30.75
2023-03-19T18:43:56.136Z,30.77
2023-03-19T18:44:56.226Z,30.81
2023-03-19T18:45:56.263Z,30.79
2023-03-19T18:46:56.284Z,30.83
2023-03-19T18:47:56.321Z,30.90
2023-03-19T18:48:56.362Z,30.93
2023-03-19T18:49:56.419Z,30.90
2023-03-19T18:50:56.464Z,30.82
2023-03-19T18:52:02.992Z,30.79
2023-03-19T18:52:57.542Z,30.84
2023-03-19T18:53:56.547Z,30.85